Time;durP1;ratioP1;P1;durP2;ratioP2;P2;SDS_P1;SDS_P2;PMS_P1;PMS_P2;Temp;Humidity;BMP_temperature;BMP_pressure;BME280_temperature;BME280_humidity;BME280_pressure;Samples;Min_cycle;Max_cycle;Signal;HPM_P1;HPM_P2
2021/01/18 00:00:12;;;;;;;108.50;30.40;;;1.00;99.70;;;;;;5052888;28;20233;-66
2021/01/18 00:02:39;;;;;;;100.40;27.67;;;1.20;96.80;;;;;;5052785;28;20205;-65
2021/01/18 00:05:07;;;;;;;98.07;27.60;;;1.20;95.30;;;;;;5053176;28;20614;-65
2021/01/18 00:07:43;;;;;;;98.55;27.45;;;1.20;96.30;;;;;;5053239;28;20213;-65
2021/01/18 00:10:15;;;;;;;102.85;26.67;;;1.20;96.80;;;;;;5052720;28;20216;-65
2021/01/18 00:12:45;;;;;;;88.90;20.40;;;1.20;97.30;;;;;;5052654;28;20225;-65
2021/01/18 00:15:13;;;;;;;76.75;16.05;;;1.20;95.40;;;;;;5052576;28;20693;-65
2021/01/18 00:17:39;;;;;;;84.32;17.80;;;1.20;95.40;;;;;;5051327;28;20202;-66
2021/01/18 00:20:07;;;;;;;77.75;13.68;;;1.30;95.20;;;;;;5051269;28;20416;-65
2021/01/18 00:22:37;;;;;;;72.25;12.05;;;1.30;95.30;;;;;;5052492;28;20229;-65
2021/01/18 00:25:07;;;;;;;75.95;14.32;;;1.40;95.90;;;;;;5052448;28;20216;-65
2021/01/18 00:27:33;;;;;;;78.22;15.73;;;1.50;96.40;;;;;;5052464;28;20228;-65
2021/01/18 00:30:00;;;;;;;75.72;14.45;;;1.60;98.00;;;;;;5052338;28;20266;-65
2021/01/18 00:32:26;;;;;;;75.75;13.35;;;1.60;96.50;;;;;;5051913;28;20294;-65
2021/01/18 00:34:52;;;;;;;74.18;14.13;;;1.70;97.20;;;;;;5052424;28;20216;-65
2021/01/18 00:37:19;;;;;;;73.60;14.05;;;1.70;97.30;;;;;;5052372;28;20212;-65
2021/01/18 00:39:45;;;;;;;74.65;13.55;;;1.70;97.10;;;;;;5052176;28;20213;-65
2021/01/18 00:42:19;;;;;;;79.30;13.90;;;1.80;97.40;;;;;;5052398;28;20579;-65
2021/01/18 00:44:45;;;;;;;74.70;13.73;;;1.80;97.20;;;;;;5051997;28;20278;-65
2021/01/18 00:47:12;;;;;;;70.78;12.98;;;1.80;97.60;;;;;;5052373;28;20245;-65
2021/01/18 00:49:38;;;;;;;73.20;11.75;;;1.80;97.30;;;;;;5050473;28;20205;-65
2021/01/18 00:52:05;;;;;;;72.75;11.85;;;1.80;97.20;;;;;;5051736;28;20279;-66
2021/01/18 00:54:31;;;;;;;71.72;12.88;;;1.90;96.70;;;;;;5051854;28;20673;-65
2021/01/18 00:56:57;;;;;;;72.63;11.30;;;1.90;96.80;;;;;;5051868;28;20212;-65
2021/01/18 00:59:25;;;;;;;74.35;11.23;;;1.90;96.50;;;;;;5052096;28;20661;-65
2021/01/18 01:01:51;;;;;;;71.03;10.65;;;1.90;98.40;;;;;;5051768;28;20218;-65
2021/01/18 01:04:17;;;;;;;71.28;10.30;;;1.90;99.20;;;;;;5051895;28;20739;-66
2021/01/18 01:06:43;;;;;;;67.93;11.40;;;1.90;99.60;;;;;;5051840;28;20588;-66
2021/01/18 01:09:10;;;;;;;68.82;12.73;;;1.90;99.90;;;;;;5051657;28;20268;-66
2021/01/18 01:11:43;;;;;;;71.25;13.35;;;1.90;99.90;;;;;;5051457;28;20689;-65
2021/01/18 01:14:10;;;;;;;70.95;10.85;;;1.90;99.90;;;;;;5051348;28;20217;-65
2021/01/18 01:16:37;;;;;;;72.38;11.55;;;1.90;99.90;;;;;;5051752;28;20339;-65
2021/01/18 01:19:03;;;;;;;66.90;10.70;;;1.90;99.90;;;;;;5051316;28;20206;-66
2021/01/18 01:21:30;;;;;;;71.18;12.43;;;1.90;99.90;;;;;;5050241;28;20222;-66
2021/01/18 01:23:56;;;;;;;66.65;11.63;;;1.90;99.90;;;;;;5051352;28;20263;-66
2021/01/18 01:26:23;;;;;;;71.03;11.85;;;1.90;99.90;;;;;;5051405;28;20209;-66
2021/01/18 01:28:49;;;;;;;73.05;13.07;;;1.90;99.90;;;;;;5051146;28;20210;-66
2021/01/18 01:31:15;;;;;;;68.82;11.82;;;1.90;99.90;;;;;;5051008;28;20233;-66
2021/01/18 01:33:43;;;;;;;68.22;11.35;;;1.90;99.30;;;;;;5051239;28;20205;-65
2021/01/18 01:36:09;;;;;;;74.55;12.32;;;1.90;98.70;;;;;;5051464;28;20624;-66
2021/01/18 01:38:35;;;;;;;70.25;13.48;;;1.90;97.30;;;;;;5051280;28;20201;-66
2021/01/18 01:41:02;;;;;;;71.10;12.35;;;1.80;96.30;;;;;;5051233;28;20226;-66
2021/01/18 01:43:28;;;;;;;70.65;12.57;;;1.80;96.00;;;;;;5051106;28;20212;-66
2021/01/18 01:45:55;;;;;;;72.15;12.07;;;1.80;96.30;;;;;;5051433;28;20205;-66
2021/01/18 01:48:21;;;;;;;72.45;12.90;;;1.80;95.80;;;;;;5051337;28;20583;-65
2021/01/18 01:50:48;;;;;;;69.07;11.82;;;1.90;98.90;;;;;;5049784;28;20234;-66
2021/01/18 01:53:20;;;;;;;75.13;12.65;;;1.90;99.90;;;;;;5050864;28;20236;-66
2021/01/18 01:55:47;;;;;;;68.55;10.80;;;1.90;99.90;;;;;;5051013;28;20251;-65
2021/01/18 01:58:14;;;;;;;74.93;12.27;;;1.90;99.90;;;;;;5051315;28;20220;-65
2021/01/18 02:00:42;;;;;;;69.43;11.40;;;1.90;99.90;;;;;;5051191;28;20221;-65
2021/01/18 02:03:10;;;;;;;69.32;10.73;;;1.90;99.80;;;;;;5051005;28;20202;-65
2021/01/18 02:05:37;;;;;;;70.38;10.20;;;1.90;99.90;;;;;;5051363;28;20694;-66
2021/01/18 02:08:06;;;;;;;65.45;9.02;;;1.90;99.90;;;;;;5051220;28;20256;-66
2021/01/18 02:10:34;;;;;;;70.45;10.10;;;1.90;98.70;;;;;;5052637;28;20236;-66
2021/01/18 02:13:02;;;;;;;65.28;9.55;;;1.90;97.30;;;;;;5051786;28;20248;-66
2021/01/18 02:15:39;;;;;;;66.60;9.05;;;1.90;96.60;;;;;;5051093;28;20241;-66
2021/01/18 02:18:42;;;;;;;68.72;10.23;;;1.90;94.90;;;;;;5051396;28;20205;-65
2021/01/18 02:21:42;;;;;;;64.85;8.88;;;2.00;94.40;;;;;;5018799;28;20635;-66
2021/01/18 02:25:08;;;;;;;62.00;8.13;;;2.00;94.30;;;;;;5050536;28;20256;-65
2021/01/18 02:27:59;;;;;;;63.83;9.10;;;2.00;93.90;;;;;;5050886;28;20214;-65
2021/01/18 02:31:09;;;;;;;64.72;9.02;;;2.00;93.60;;;;;;5051079;28;20744;-65
2021/01/18 02:34:15;;;;;;;63.28;8.00;;;2.00;93.20;;;;;;5050713;28;20210;-65
2021/01/18 02:36:50;;;;;;;62.08;7.25;;;2.10;92.80;;;;;;5050767;28;20212;-65
2021/01/18 02:39:25;;;;;;;63.25;7.60;;;2.10;92.50;;;;;;5050847;28;20237;-65
2021/01/18 02:41:57;;;;;;;64.60;8.93;;;2.10;92.10;;;;;;5050587;28;20225;-65
2021/01/18 02:44:27;;;;;;;64.18;8.50;;;2.10;91.70;;;;;;5054228;28;20205;-65
2021/01/18 02:46:53;;;;;;;63.08;8.25;;;2.10;91.20;;;;;;5054381;28;20201;-65
2021/01/18 02:49:21;;;;;;;64.15;8.10;;;2.10;90.90;;;;;;5054159;28;20212;-65
2021/01/18 02:51:55;;;;;;;62.90;8.23;;;2.10;90.40;;;;;;5053672;28;20225;-65
2021/01/18 02:54:21;;;;;;;64.38;8.50;;;2.10;90.10;;;;;;5053535;28;20255;-65
2021/01/18 02:56:51;;;;;;;62.78;8.27;;;2.10;89.70;;;;;;5054266;28;20205;-65
2021/01/18 02:59:19;;;;;;;63.33;8.18;;;2.10;89.00;;;;;;5054160;28;20210;-65
2021/01/18 03:02:06;;;;;;;63.00;8.65;;;2.10;88.30;;;;;;5053985;28;20217;-66
2021/01/18 03:04:51;;;;;;;69.72;10.23;;;2.10;88.10;;;;;;5053806;28;20205;-65
2021/01/18 03:07:27;;;;;;;67.15;10.05;;;2.20;87.40;;;;;;5053805;28;20276;-66
2021/01/18 03:10:00;;;;;;;67.63;9.85;;;2.20;86.90;;;;;;5054033;28;20598;-65
2021/01/18 03:12:31;;;;;;;67.07;10.07;;;2.20;84.10;;;;;;5053921;28;20236;-65
2021/01/18 03:15:00;;;;;;;63.60;8.77;;;2.20;82.80;;;;;;5053562;28;20687;-65
2021/01/18 03:17:30;;;;;;;76.70;10.93;;;2.10;81.60;;;;;;5053817;28;20302;-66
2021/01/18 03:19:57;;;;;;;66.22;10.20;;;2.10;81.30;;;;;;5053870;28;20551;-65
2021/01/18 03:22:27;;;;;;;64.90;9.48;;;2.20;80.60;;;;;;5053463;28;20228;-66
2021/01/18 03:25:00;;;;;;;69.68;11.80;;;2.10;79.50;;;;;;5052448;28;20224;-65
2021/01/18 03:27:26;;;;;;;69.53;11.18;;;2.10;78.50;;;;;;5033436;28;20210;-66
2021/01/18 03:29:52;;;;;;;74.38;12.13;;;2.10;78.20;;;;;;5033739;28;20283;-65
2021/01/18 03:32:19;;;;;;;65.90;10.50;;;2.10;78.10;;;;;;5033197;28;20272;-65
2021/01/18 03:34:46;;;;;;;72.13;12.18;;;2.10;77.80;;;;;;5033468;28;20682;-65
2021/01/18 03:37:12;;;;;;;68.70;10.82;;;2.10;76.90;;;;;;5033406;28;20348;-65
2021/01/18 03:39:39;;;;;;;66.90;11.00;;;2.10;76.60;;;;;;5033272;28;20210;-65
2021/01/18 03:42:06;;;;;;;68.05;11.48;;;2.10;76.30;;;;;;5033081;28;20320;-65
2021/01/18 03:44:34;;;;;;;67.47;11.13;;;2.10;75.90;;;;;;5033232;28;20202;-66
2021/01/18 03:47:00;;;;;;;72.55;11.80;;;2.10;75.80;;;;;;5033305;28;20206;-65
2021/01/18 03:49:26;;;;;;;69.95;11.32;;;2.10;75.40;;;;;;5033015;28;20214;-65
2021/01/18 03:51:53;;;;;;;70.32;12.65;;;2.10;75.90;;;;;;5032725;28;20250;-66
2021/01/18 03:54:19;;;;;;;69.47;11.23;;;2.10;76.20;;;;;;5032232;28;20202;-65
2021/01/18 03:56:46;;;;;;;72.85;11.15;;;2.10;75.70;;;;;;5031453;28;20211;-66
2021/01/18 03:59:13;;;;;;;72.47;12.60;;;2.10;75.50;;;;;;5032080;28;20210;-65
2021/01/18 04:01:39;;;;;;;66.60;10.23;;;2.10;75.10;;;;;;5033318;28;20599;-66
2021/01/18 04:04:07;;;;;;;69.43;11.00;;;2.10;75.20;;;;;;5033129;28;20289;-66
2021/01/18 04:06:34;;;;;;;69.95;10.70;;;2.10;75.30;;;;;;5033028;28;20206;-65
2021/01/18 04:09:01;;;;;;;70.30;10.70;;;2.10;75.50;;;;;;5032974;28;20629;-66
2021/01/18 04:11:27;;;;;;;72.40;10.55;;;2.10;75.10;;;;;;5032795;28;20287;-66
2021/01/18 04:13:54;;;;;;;70.15;12.27;;;2.10;74.70;;;;;;5033025;28;20222;-66
2021/01/18 04:16:20;;;;;;;73.40;11.30;;;2.10;74.40;;;;;;5033160;28;20206;-66
2021/01/18 04:18:47;;;;;;;70.95;12.23;;;2.10;74.30;;;;;;5032905;28;20210;-66
2021/01/18 04:21:16;;;;;;;67.05;10.98;;;2.10;74.80;;;;;;5032698;28;20226;-66
2021/01/18 04:23:42;;;;;;;75.35;12.50;;;2.10;75.10;;;;;;5032541;28;20210;-66
2021/01/18 04:26:08;;;;;;;72.00;11.55;;;2.10;75.50;;;;;;5032883;28;20210;-66
2021/01/18 04:28:35;;;;;;;72.90;11.25;;;2.00;75.90;;;;;;5032661;28;20250;-66
2021/01/18 04:31:03;;;;;;;72.72;13.25;;;2.00;76.30;;;;;;5032588;28;20315;-66
2021/01/18 04:33:29;;;;;;;68.22;12.02;;;2.00;76.60;;;;;;5032388;28;20209;-66
2021/01/18 04:35:56;;;;;;;67.90;10.95;;;2.00;76.80;;;;;;5032508;28;20213;-66
2021/01/18 04:38:22;;;;;;;69.88;12.50;;;2.00;77.40;;;;;;5032357;28;20736;-66
2021/01/18 04:40:49;;;;;;;77.30;12.05;;;1.90;77.70;;;;;;5032591;28;20596;-66
2021/01/18 04:43:16;;;;;;;73.65;14.20;;;1.90;78.20;;;;;;5032472;28;20207;-66
2021/01/18 04:45:43;;;;;;;67.90;12.32;;;1.90;78.50;;;;;;5032365;28;20214;-65
2021/01/18 04:48:12;;;;;;;71.53;11.98;;;1.90;79.10;;;;;;5032257;28;20216;-66
2021/01/18 04:53:13;;;;;;;71.40;12.30;;;1.80;81.00;;;;;;5069763;28;20232;-66
2021/01/18 04:55:53;;;;;;;73.70;12.88;;;1.80;82.60;;;;;;5072151;28;20819;-67
2021/01/18 04:58:20;;;;;;;75.97;13.70;;;1.80;83.70;;;;;;5072152;28;20209;-67
2021/01/18 05:00:48;;;;;;;74.03;12.13;;;1.80;84.90;;;;;;5071944;28;20688;-67
2021/01/18 05:03:16;;;;;;;74.63;12.90;;;1.80;85.30;;;;;;5071842;28;20267;-67
2021/01/18 05:06:21;;;;;;;72.43;12.55;;;1.80;87.20;;;;;;5071611;28;20208;-67
2021/01/18 05:09:26;;;;;;;70.28;13.50;;;1.80;86.70;;;;;;5065298;28;20216;-67
2021/01/18 05:11:53;;;;;;;72.53;12.32;;;1.80;90.70;;;;;;5047699;28;20228;-67
2021/01/18 05:14:19;;;;;;;78.13;14.18;;;1.80;90.00;;;;;;5071799;28;20204;-67
2021/01/18 05:16:51;;;;;;;73.25;12.38;;;1.70;88.80;;;;;;5071789;28;20290;-67
2021/01/18 05:19:19;;;;;;;76.65;13.27;;;1.80;89.10;;;;;;5071780;28;20302;-67
2021/01/18 05:21:47;;;;;;;72.57;12.27;;;1.80;89.00;;;;;;5071702;28;20228;-67
2021/01/18 05:24:16;;;;;;;71.35;12.75;;;1.80;88.90;;;;;;5071577;28;20222;-67
2021/01/18 05:26:42;;;;;;;77.80;14.05;;;1.70;90.30;;;;;;5071665;28;20207;-67
2021/01/18 05:29:09;;;;;;;77.40;13.38;;;1.70;89.60;;;;;;5071625;28;20588;-67
2021/01/18 05:31:38;;;;;;;80.78;13.70;;;1.80;89.90;;;;;;5071574;28;20760;-67
2021/01/18 05:34:06;;;;;;;71.05;13.27;;;1.70;90.00;;;;;;5071937;28;20208;-67
2021/01/18 05:36:36;;;;;;;83.95;13.77;;;1.70;90.10;;;;;;5071567;28;20216;-67
2021/01/18 05:39:13;;;;;;;73.70;13.50;;;1.80;90.20;;;;;;5071780;28;20205;-67
2021/01/18 05:41:41;;;;;;;72.32;14.00;;;1.80;90.20;;;;;;5071509;28;20233;-67
2021/01/18 05:44:08;;;;;;;79.03;14.73;;;1.80;90.30;;;;;;5071806;28;20205;-67
2021/01/18 05:46:36;;;;;;;75.65;14.13;;;1.80;90.40;;;;;;5071590;28;20204;-67
2021/01/18 05:49:13;;;;;;;77.00;14.30;;;1.80;90.40;;;;;;5071309;28;20668;-67
2021/01/18 05:51:41;;;;;;;72.72;13.98;;;1.80;90.40;;;;;;5071276;28;20228;-67
2021/01/18 05:54:11;;;;;;;78.05;13.80;;;1.80;90.40;;;;;;5071509;28;20648;-67
2021/01/18 05:56:39;;;;;;;79.63;13.52;;;1.80;90.30;;;;;;5071510;28;20707;-67
2021/01/18 05:59:20;;;;;;;72.05;12.98;;;1.90;90.20;;;;;;5071408;28;20595;-67
2021/01/18 06:01:48;;;;;;;76.53;13.73;;;1.90;89.70;;;;;;5071195;28;20233;-67
2021/01/18 06:04:16;;;;;;;73.10;13.82;;;1.90;88.90;;;;;;5071605;28;20296;-67
2021/01/18 06:06:51;;;;;;;78.40;13.35;;;1.90;88.60;;;;;;5071712;28;20216;-67
2021/01/18 06:09:18;;;;;;;74.97;12.95;;;1.90;87.90;;;;;;5071528;28;20231;-67
2021/01/18 06:11:44;;;;;;;75.65;13.75;;;1.90;87.30;;;;;;5071244;28;20660;-67
2021/01/18 06:14:10;;;;;;;78.72;14.80;;;1.90;87.10;;;;;;5070992;28;20205;-67
2021/01/18 06:16:39;;;;;;;71.35;11.70;;;1.90;86.90;;;;;;5071408;28;20295;-67
2021/01/18 06:19:08;;;;;;;73.10;12.63;;;1.90;86.80;;;;;;5074236;28;20244;-67
2021/01/18 06:21:35;;;;;;;72.70;12.48;;;1.90;86.60;;;;;;5075003;28;20268;-67
2021/01/18 06:24:26;;;;;;;75.63;12.52;;;1.90;84.90;;;;;;5074782;28;20243;-67
2021/01/18 06:26:53;;;;;;;72.00;12.98;;;1.90;84.80;;;;;;5075068;28;20212;-67
2021/01/18 06:29:43;;;;;;;70.80;13.38;;;2.00;83.90;;;;;;5074991;28;20232;-67
2021/01/18 06:32:14;;;;;;;78.07;12.98;;;2.00;81.50;;;;;;5054378;28;20217;-67
2021/01/18 06:34:40;;;;;;;70.47;12.00;;;1.90;81.40;;;;;;5074831;28;20208;-67
2021/01/18 06:37:19;;;;;;;71.35;12.75;;;1.90;81.00;;;;;;5075038;28;20209;-67
2021/01/18 06:39:48;;;;;;;72.88;12.88;;;1.90;79.90;;;;;;5074619;28;20205;-67
2021/01/18 06:42:22;;;;;;;72.15;11.80;;;2.00;79.10;;;;;;5074216;28;20722;-67
2021/01/18 06:44:50;;;;;;;70.03;11.20;;;1.90;78.60;;;;;;5074632;28;20587;-67
2021/01/18 06:47:28;;;;;;;71.68;12.85;;;1.90;78.20;;;;;;5074890;28;20656;-68
2021/01/18 06:49:56;;;;;;;75.57;10.73;;;2.00;78.90;;;;;;5074504;28;20209;-68
2021/01/18 06:52:25;;;;;;;69.05;11.65;;;1.90;78.70;;;;;;5074141;28;20253;-67
2021/01/18 06:54:59;;;;;;;70.35;11.43;;;1.90;78.70;;;;;;5074525;28;20213;-67
2021/01/18 06:57:46;;;;;;;83.07;13.43;;;1.90;78.90;;;;;;5074379;28;20205;-68
2021/01/18 07:00:14;;;;;;;76.45;13.80;;;1.90;78.90;;;;;;5061160;28;20683;-67
2021/01/18 07:02:54;;;;;;;69.80;11.82;;;1.90;79.30;;;;;;5074136;28;20278;-67
2021/01/18 07:05:35;;;;;;;70.88;12.80;;;1.90;79.00;;;;;;5074313;28;20619;-67
2021/01/18 07:08:20;;;;;;;74.45;12.30;;;1.90;79.90;;;;;;5074106;28;20217;-67
2021/01/18 07:10:48;;;;;;;71.75;12.27;;;2.00;78.00;;;;;;5074330;28;20209;-68
2021/01/18 07:13:18;;;;;;;76.35;11.73;;;2.00;77.60;;;;;;5074128;28;20205;-67
2021/01/18 07:15:45;;;;;;;71.85;11.80;;;2.00;75.50;;;;;;5074141;28;20212;-68
2021/01/18 07:18:12;;;;;;;68.05;11.50;;;2.00;74.50;;;;;;5074018;28;20204;-68
2021/01/18 07:20:44;;;;;;;69.85;11.88;;;2.00;73.90;;;;;;5073812;28;20205;-67
2021/01/18 07:23:31;;;;;;;73.50;12.50;;;2.00;73.10;;;;;;5073894;28;20224;-67
2021/01/18 07:26:06;;;;;;;66.88;10.95;;;2.00;72.70;;;;;;5073788;28;20301;-67
2021/01/18 07:28:33;;;;;;;72.47;10.85;;;2.00;72.90;;;;;;5073262;28;20694;-67
2021/01/18 07:31:00;;;;;;;72.63;10.43;;;2.00;72.50;;;;;;5073542;28;20237;-67
2021/01/18 07:33:27;;;;;;;73.35;12.13;;;2.00;72.50;;;;;;5073454;28;20213;-67
2021/01/18 07:35:53;;;;;;;68.25;11.20;;;2.00;72.40;;;;;;5073734;28;20204;-67
2021/01/18 07:38:21;;;;;;;68.35;10.45;;;2.00;71.80;;;;;;5073491;28;20566;-67
2021/01/18 07:41:15;;;;;;;68.70;11.05;;;2.00;71.80;;;;;;5073419;28;20205;-67
2021/01/18 07:43:42;;;;;;;68.25;10.75;;;2.00;70.90;;;;;;5073303;28;20212;-67
2021/01/18 07:46:39;;;;;;;67.63;10.35;;;2.10;69.20;;;;;;5073450;28;20205;-67
2021/01/18 07:49:42;;;;;;;72.95;11.77;;;2.10;67.80;;;;;;5073316;28;20667;-67
2021/01/18 07:52:28;;;;;;;72.28;10.52;;;2.10;66.60;;;;;;5072917;28;20228;-67
2021/01/18 07:54:57;;;;;;;72.63;12.73;;;2.10;66.20;;;;;;5073155;28;20231;-67
2021/01/18 07:57:40;;;;;;;68.95;10.50;;;2.10;66.20;;;;;;5073319;28;20209;-67
2021/01/18 08:00:35;;;;;;;73.78;11.30;;;2.10;66.20;;;;;;5073085;28;20208;-67
2021/01/18 08:03:24;;;;;;;75.20;11.95;;;2.20;66.40;;;;;;5073027;28;20236;-67
2021/01/18 08:06:00;;;;;;;68.68;11.25;;;2.20;66.30;;;;;;5073124;28;20236;-67
2021/01/18 08:08:28;;;;;;;73.78;11.82;;;2.20;66.20;;;;;;5072922;28;20205;-67
2021/01/18 08:10:58;;;;;;;67.28;11.27;;;2.20;66.00;;;;;;5072723;28;20291;-67
2021/01/18 08:13:47;;;;;;;65.78;9.18;;;2.20;65.30;;;;;;5073121;28;20288;-67
2021/01/18 08:16:22;;;;;;;69.95;11.88;;;2.30;64.30;;;;;;5072837;28;20651;-67
2021/01/18 08:19:06;;;;;;;66.13;10.20;;;2.30;63.30;;;;;;5072735;28;20201;-67
2021/01/18 08:21:57;;;;;;;66.65;10.57;;;2.30;61.40;;;;;;5072724;28;20636;-67
2021/01/18 08:24:54;;;;;;;66.10;9.60;;;2.30;60.90;;;;;;5072535;28;20205;-67
2021/01/18 08:27:57;;;;;;;77.80;10.68;;;2.30;60.20;;;;;;5072513;28;20424;-67
2021/01/18 08:30:33;;;;;;;68.43;10.05;;;2.40;58.10;;;;;;5072403;28;20211;-67
2021/01/18 08:33:02;;;;;;;67.78;9.75;;;2.40;54.60;;;;;;5072206;28;20217;-67
2021/01/18 08:35:34;;;;;;;67.45;9.38;;;2.40;47.60;;;;;;5072378;28;20315;-67
2021/01/18 08:38:03;;;;;;;73.03;10.27;;;2.50;45.30;;;;;;5072293;28;20216;-66
2021/01/18 08:40:42;;;;;;;70.78;10.48;;;2.50;37.10;;;;;;5071760;28;20204;-67
2021/01/18 08:43:09;;;;;;;69.55;9.65;;;2.50;28.00;;;;;;5072262;28;20244;-67
2021/01/18 08:45:38;;;;;;;71.22;11.23;;;2.50;27.70;;;;;;5072213;28;20209;-67
2021/01/18 08:48:06;;;;;;;69.05;9.45;;;2.60;29.10;;;;;;5072106;28;20295;-67
2021/01/18 08:50:38;;;;;;;66.03;9.15;;;2.60;30.90;;;;;;5072095;28;20296;-66
2021/01/18 08:53:24;;;;;;;65.97;9.38;;;2.70;32.40;;;;;;5071886;28;20213;-67
2021/01/18 08:55:54;;;;;;;65.85;9.65;;;2.80;24.00;;;;;;5072077;28;20200;-67
2021/01/18 08:58:38;;;;;;;65.32;9.80;;;2.80;21.70;;;;;;5072153;28;20211;-67
2021/01/18 09:01:10;;;;;;;66.80;9.50;;;2.90;22.60;;;;;;5071959;28;20221;-67
2021/01/18 09:03:36;;;;;;;67.90;9.55;;;2.90;20.40;;;;;;5072129;28;20240;-67
2021/01/18 09:06:03;;;;;;;67.50;10.95;;;2.90;20.20;;;;;;5071920;28;20672;-67
2021/01/18 09:08:30;;;;;;;69.80;9.80;;;3.00;20.50;;;;;;5071861;28;20205;-67
2021/01/18 09:10:58;;;;;;;76.95;10.70;;;3.10;20.80;;;;;;5071857;28;20239;-67
2021/01/18 09:13:26;;;;;;;67.15;9.95;;;3.10;25.20;;;;;;5071693;28;20250;-67
2021/01/18 09:15:53;;;;;;;65.85;10.50;;;3.20;27.20;;;;;;5071986;28;20212;-66
2021/01/18 09:18:22;;;;;;;69.38;9.70;;;3.30;28.30;;;;;;5071840;28;20205;-67
2021/01/18 09:20:50;;;;;;;67.13;9.30;;;3.30;25.50;;;;;;5071880;28;20277;-66
2021/01/18 09:23:17;;;;;;;65.65;9.15;;;3.30;16.90;;;;;;5071691;28;20299;-67
2021/01/18 09:25:45;;;;;;;71.30;9.57;;;3.30;14.80;;;;;;5071693;28;20209;-67
2021/01/18 09:28:13;;;;;;;78.93;9.05;;;3.40;17.30;;;;;;5071838;28;20208;-67
2021/01/18 09:30:41;;;;;;;66.70;9.70;;;3.40;17.30;;;;;;5071796;28;20201;-66
2021/01/18 09:33:09;;;;;;;68.30;8.55;;;3.40;17.80;;;;;;5071386;28;20201;-66
2021/01/18 09:35:37;;;;;;;65.18;9.18;;;3.40;18.00;;;;;;5071594;28;20209;-67
2021/01/18 09:38:05;;;;;;;65.05;9.02;;;3.50;17.40;;;;;;5071670;28;20224;-67
2021/01/18 09:40:32;;;;;;;64.07;8.70;;;3.50;14.50;;;;;;5071549;28;20306;-67
2021/01/18 09:42:59;;;;;;;63.25;9.10;;;3.50;8.60;;;;;;5071522;28;20327;-67
2021/01/18 09:45:26;;;;;;;69.28;9.50;;;3.60;9.40;;;;;;5071632;28;20205;-66
2021/01/18 09:47:54;;;;;;;75.38;9.02;;;3.60;1.00;;;;;;5071446;28;20207;-67
2021/01/18 09:50:22;;;;;;;64.93;8.95;;;3.70;1.00;;;;;;5071604;28;20589;-67
2021/01/18 09:52:52;;;;;;;65.30;8.80;;;3.70;1.00;;;;;;5073993;28;20614;-66
2021/01/18 09:55:20;;;;;;;67.20;8.77;;;3.80;1.00;;;;;;5075914;28;20582;-66
2021/01/18 09:57:52;;;;;;;66.05;7.50;;;3.70;1.00;;;;;;5075367;28;20212;-66
2021/01/18 10:00:22;;;;;;;63.40;8.10;;;3.70;1.00;;;;;;5075620;28;20209;-66
2021/01/18 10:02:50;;;;;;;64.88;7.75;;;3.70;1.00;;;;;;5075275;28;20688;-67
2021/01/18 10:05:45;;;;;;;65.10;8.27;;;3.80;1.00;;;;;;5075210;28;20208;-67
2021/01/18 10:08:14;;;;;;;62.92;7.57;;;3.80;1.00;;;;;;5039825;28;20208;-66
2021/01/18 10:10:42;;;;;;;64.40;8.23;;;3.80;1.00;;;;;;5075372;28;20287;-66
2021/01/18 10:13:14;;;;;;;70.63;9.52;;;3.80;1.00;;;;;;5075032;28;20201;-66
2021/01/18 10:15:40;;;;;;;64.28;7.95;;;3.80;1.00;;;;;;5075091;28;20205;-66
2021/01/18 10:18:06;;;;;;;67.40;8.82;;;3.80;1.00;;;;;;5075308;28;20209;-66
2021/01/18 10:20:33;;;;;;;64.78;9.27;;;3.90;1.00;;;;;;5075083;28;20201;-66
2021/01/18 10:22:59;;;;;;;68.18;9.43;;;4.00;1.00;;;;;;5074904;28;20254;-66
2021/01/18 10:25:31;;;;;;;65.95;9.25;;;4.00;1.00;;;;;;5074993;28;20266;-66
2021/01/18 10:27:57;;;;;;;75.80;9.60;;;4.00;1.00;;;;;;5074830;28;20251;-66
2021/01/18 10:30:28;;;;;;;66.22;8.27;;;4.00;1.00;;;;;;5074904;28;20326;-66
2021/01/18 10:32:56;;;;;;;66.90;7.50;;;4.00;1.00;;;;;;5074899;28;20270;-66
2021/01/18 10:35:26;;;;;;;66.40;9.02;;;3.90;1.00;;;;;;5074925;28;20291;-66
2021/01/18 10:37:53;;;;;;;62.55;8.60;;;4.00;1.00;;;;;;5074836;28;20255;-66
2021/01/18 10:40:23;;;;;;;63.55;7.50;;;4.00;1.00;;;;;;5074782;28;20204;-66
2021/01/18 10:42:53;;;;;;;61.67;7.05;;;4.00;1.00;;;;;;5074402;28;20225;-66
2021/01/18 10:45:22;;;;;;;64.35;8.00;;;4.00;1.00;;;;;;5074815;28;20200;-66
2021/01/18 10:47:56;;;;;;;63.15;7.07;;;4.00;1.00;;;;;;5074511;28;20711;-66
2021/01/18 10:50:27;;;;;;;65.18;8.88;;;4.20;1.00;;;;;;5074740;28;20209;-66
2021/01/18 10:53:02;;;;;;;65.90;7.00;;;4.30;1.00;;;;;;5107532;22;20227;-68
2021/01/18 10:55:28;;;;;;;60.42;7.03;;;4.40;1.00;;;;;;5113802;28;20314;-68
2021/01/18 10:57:56;;;;;;;63.80;7.65;;;4.50;1.00;;;;;;5115175;28;20210;-68
2021/01/18 11:00:24;;;;;;;62.22;7.20;;;4.50;1.00;;;;;;5115081;28;20214;-68
2021/01/18 11:02:55;;;;;;;64.30;7.43;;;4.50;1.00;;;;;;5114315;28;20236;-68
2021/01/18 11:05:32;;;;;;;67.55;6.85;;;4.60;1.00;;;;;;5114544;28;20211;-68
2021/01/18 11:08:00;;;;;;;60.72;6.72;;;4.60;1.00;;;;;;5114691;28;20587;-68
2021/01/18 11:10:28;;;;;;;63.05;6.85;;;4.60;1.00;;;;;;5114666;28;20730;-68
2021/01/18 11:13:07;;;;;;;63.88;7.55;;;4.60;1.00;;;;;;5114675;28;20272;-67
2021/01/18 11:15:39;;;;;;;63.35;7.82;;;4.60;1.00;;;;;;5114727;28;20643;-68
2021/01/18 11:18:07;;;;;;;63.92;6.80;;;4.70;1.00;;;;;;5114619;28;20290;-68
2021/01/18 11:20:34;;;;;;;61.90;6.80;;;4.80;1.00;;;;;;5114587;28;20679;-68
2021/01/18 11:23:01;;;;;;;60.55;6.85;;;4.90;1.00;;;;;;5114421;28;20317;-68
2021/01/18 11:25:29;;;;;;;62.83;6.60;;;4.90;1.00;;;;;;5114427;28;20203;-68
2021/01/18 11:28:07;;;;;;;62.15;6.90;;;4.90;1.00;;;;;;5114468;28;20298;-66
2021/01/18 11:30:33;;;;;;;63.90;6.97;;;4.90;1.00;;;;;;5114263;28;20215;-67
2021/01/18 11:32:59;;;;;;;61.83;6.85;;;4.90;1.00;;;;;;5114028;28;20227;-67
2021/01/18 11:35:26;;;;;;;62.40;6.80;;;5.00;1.00;;;;;;5114454;28;20208;-68
2021/01/18 11:37:52;;;;;;;61.55;7.22;;;5.10;1.00;;;;;;5114350;28;20207;-67
2021/01/18 11:40:19;;;;;;;64.18;6.15;;;5.20;1.00;;;;;;5114291;28;20212;-68
2021/01/18 11:42:45;;;;;;;62.80;6.95;;;5.30;1.00;;;;;;5114001;28;20331;-67
2021/01/18 11:45:13;;;;;;;61.88;7.38;;;5.20;1.00;;;;;;5114073;28;20735;-67
2021/01/18 11:47:40;;;;;;;64.30;6.55;;;5.20;1.00;;;;;;5114314;28;20204;-68
2021/01/18 11:50:09;;;;;;;61.45;6.75;;;5.10;1.00;;;;;;5114297;28;20392;-68
2021/01/18 11:52:41;;;;;;;62.40;8.27;;;5.00;1.00;;;;;;5113758;28;20228;-68
2021/01/18 11:55:09;;;;;;;62.45;6.15;;;4.90;1.00;;;;;;5113908;28;20203;-68
2021/01/18 11:57:35;;;;;;;61.15;7.35;;;4.90;1.00;;;;;;5113818;28;20643;-68
2021/01/18 12:00:03;;;;;;;61.85;6.97;;;4.90;1.00;;;;;;5113657;28;20210;-68
2021/01/18 12:02:31;;;;;;;63.33;6.70;;;4.90;1.00;;;;;;5113452;28;20319;-68
2021/01/18 12:04:57;;;;;;;62.17;6.95;;;4.90;1.00;;;;;;5113794;28;20650;-67
2021/01/18 12:07:23;;;;;;;62.22;7.05;;;4.90;1.00;;;;;;5113700;28;20207;-67
2021/01/18 12:09:50;;;;;;;62.00;7.03;;;4.90;1.00;;;;;;5113567;28;20685;-67
2021/01/18 12:12:16;;;;;;;62.42;7.72;;;4.90;1.00;;;;;;5113359;28;20215;-67
2021/01/18 12:14:42;;;;;;;67.18;8.65;;;5.00;1.00;;;;;;5113345;28;20203;-67
2021/01/18 12:17:09;;;;;;;62.72;6.90;;;5.10;1.00;;;;;;5113714;28;20592;-67
2021/01/18 12:19:36;;;;;;;63.22;8.32;;;5.10;1.00;;;;;;5113459;28;20232;-67
2021/01/18 12:22:03;;;;;;;61.42;7.25;;;5.20;1.00;;;;;;5113184;28;20270;-67
2021/01/18 12:24:29;;;;;;;63.45;7.25;;;5.30;1.00;;;;;;5113276;28;20253;-67
2021/01/18 12:26:55;;;;;;;61.58;6.85;;;5.30;1.00;;;;;;5113237;28;20624;-67
2021/01/18 12:29:22;;;;;;;62.08;7.35;;;5.30;1.00;;;;;;5113388;28;20207;-67
2021/01/18 12:31:48;;;;;;;64.38;7.28;;;5.20;1.00;;;;;;5113335;28;20615;-67
2021/01/18 12:34:15;;;;;;;64.75;6.28;;;5.30;1.00;;;;;;5113082;28;20207;-67
2021/01/18 12:36:42;;;;;;;66.65;7.35;;;5.30;1.00;;;;;;5113130;28;20235;-67
2021/01/18 12:39:10;;;;;;;64.80;7.22;;;5.40;1.00;;;;;;5115720;28;20568;-67
2021/01/18 12:41:38;;;;;;;61.22;6.82;;;5.40;1.00;;;;;;5113882;28;20690;-67
2021/01/18 12:44:05;;;;;;;61.70;6.05;;;5.40;1.00;;;;;;5113000;28;20207;-67
2021/01/18 12:46:32;;;;;;;61.15;6.07;;;5.30;1.00;;;;;;5113077;28;20204;-67
2021/01/18 12:48:58;;;;;;;66.40;7.40;;;5.40;1.00;;;;;;5112963;28;20576;-67
2021/01/18 12:51:24;;;;;;;62.97;6.95;;;5.30;1.00;;;;;;5112743;28;20203;-67
2021/01/18 12:53:52;;;;;;;62.72;6.78;;;5.30;1.00;;;;;;5112374;28;20227;-67
2021/01/18 12:56:21;;;;;;;66.28;7.60;;;5.10;1.00;;;;;;5111592;28;20673;-67
2021/01/18 12:58:48;;;;;;;60.67;7.43;;;5.00;1.00;;;;;;5113007;28;20207;-67
2021/01/18 13:01:14;;;;;;;64.65;7.13;;;4.90;1.00;;;;;;5112608;28;20674;-67
2021/01/18 13:03:40;;;;;;;60.50;6.05;;;4.80;1.00;;;;;;5112507;28;20600;-67